Terminal Aerodrome Forecast
Issued by NWS Oklahoma City, OK

Home | Current Version | Previous Version | Text Only | Print | Product List | Glossary On
Versions: 1 2 3 4 5 6 7 8 9 10 11 12
000
FTUS44 KOUN 251731
TAFOUN
TAF
KOUN 251731Z 2518/2618 07008KT P6SM SCT060 BKN150
     FM260100 09008KT P6SM BKN060 BKN150 PROB30 2603/2608 5SM -TSRA
      OVC050CB=

USA.gov is the U.S. government's official web portal to all federal, state and local government web resources and services.